createdAt,value
2023-03-14T00:02:06.398Z,6.75
2023-03-14T00:05:11.952Z,6.75
2023-03-14T00:08:15.797Z,6.75
2023-03-14T00:11:22.166Z,7.00
2023-03-14T00:14:25.628Z,6.00
2023-03-14T00:17:29.294Z,6.00
2023-03-14T00:20:34.128Z,7.25
2023-03-14T00:23:40.097Z,6.00
2023-03-14T00:26:43.701Z,6.75
2023-03-14T00:29:47.382Z,5.75
2023-03-14T00:32:51.207Z,7.00
2023-03-14T00:35:57.744Z,8.50
2023-03-14T00:39:01.206Z,4.50
2023-03-14T00:42:04.848Z,7.00
2023-03-14T00:45:10.017Z,4.00
2023-03-14T00:48:14.428Z,9.00
2023-03-14T00:51:19.287Z,8.50
2023-03-14T00:54:22.988Z,6.25
2023-03-14T00:57:26.768Z,9.75
2023-03-14T01:00:30.506Z,6.00
2023-03-14T01:03:34.050Z,3.75
2023-03-14T01:06:39.786Z,5.00
2023-03-14T01:09:43.380Z,6.00
2023-03-14T01:12:46.907Z,8.00
2023-03-14T01:15:50.390Z,5.50
2023-03-14T01:18:54.195Z,6.50
2023-03-14T01:21:59.709Z,6.00
2023-03-14T01:25:03.497Z,4.50
2023-03-14T01:28:06.952Z,5.75
2023-03-14T01:31:13.705Z,4.50
2023-03-14T01:34:17.186Z,6.00
2023-03-14T01:37:22.112Z,6.00
2023-03-14T01:40:26.017Z,3.75
2023-03-14T01:43:30.237Z,3.50
2023-03-14T01:46:39.352Z,6.00
2023-03-14T01:49:43.347Z,6.50
2023-03-14T01:52:53.893Z,4.00
2023-03-14T01:55:59.385Z,4.50
2023-03-14T01:59:06.812Z,6.50
2023-03-14T02:02:13.509Z,6.00
2023-03-14T02:05:21.092Z,5.50
2023-03-14T02:08:33.474Z,6.75
2023-03-14T02:11:42.067Z,4.00
2023-03-14T02:15:06.571Z,5.00
2023-03-14T02:18:41.586Z,7.25
2023-03-14T02:22:16.149Z,6.00
2023-03-14T02:25:37.930Z,9.00
2023-03-14T02:28:44.037Z,9.75
2023-03-14T02:31:47.697Z,5.00
2023-03-14T02:34:57.482Z,6.50
2023-03-14T02:38:06.144Z,8.25
2023-03-14T02:41:14.018Z,8.00
2023-03-14T02:44:24.561Z,5.00
2023-03-14T02:47:31.675Z,8.00
2023-03-14T02:50:36.848Z,4.50
2023-03-14T02:53:42.430Z,6.00
2023-03-14T02:56:48.873Z,4.00
2023-03-14T02:59:53.937Z,4.50
2023-03-14T03:02:58.763Z,6.75
2023-03-14T03:06:02.537Z,6.00
2023-03-14T03:09:06.718Z,6.50
2023-03-14T03:12:10.448Z,6.50
2023-03-14T03:15:15.664Z,6.00
2023-03-14T03:18:19.413Z,4.00
2023-03-14T03:21:24.546Z,6.25
2023-03-14T03:24:28.787Z,5.00
2023-03-14T03:27:33.055Z,8.25
2023-03-14T03:30:40.313Z,4.00
2023-03-14T03:33:44.234Z,6.00
2023-03-14T03:36:48.148Z,5.00
2023-03-14T03:39:59.266Z,9.00
2023-03-14T03:43:06.005Z,5.50
2023-03-14T03:46:15.048Z,7.00
2023-03-14T03:49:21.070Z,3.25
2023-03-14T03:52:26.703Z,4.50
2023-03-14T03:55:30.317Z,6.00
2023-03-14T03:58:34.015Z,3.50
2023-03-14T04:01:41.073Z,3.50
2023-03-14T04:04:47.428Z,1.00
2023-03-14T04:07:51.142Z,6.00
2023-03-14T04:11:01.732Z,7.00
2023-03-14T04:14:28.441Z,6.00
2023-03-14T04:17:42.521Z,6.25
2023-03-14T04:20:46.773Z,3.50
2023-03-14T04:23:50.457Z,5.00
2023-03-14T04:26:58.905Z,4.00
2023-03-14T04:30:04.340Z,6.75
2023-03-14T04:33:35.801Z,7.00
2023-03-14T04:36:40.248Z,6.50
2023-03-14T04:39:48.021Z,3.00
2023-03-14T04:43:03.012Z,3.00
2023-03-14T04:46:08.472Z,4.00
2023-03-14T04:49:13.899Z,7.00
2023-03-14T04:52:17.691Z,3.75
2023-03-14T04:55:24.350Z,4.00
2023-03-14T04:58:29.780Z,1.50
2023-03-14T05:01:35.250Z,5.00
2023-03-14T05:04:58.171Z,4.00
2023-03-14T05:08:16.358Z,4.00
2023-03-14T05:11:38.189Z,3.25
2023-03-14T05:14:50.738Z,4.00
2023-03-14T05:18:20.829Z,4.00
2023-03-14T05:21:55.216Z,6.00
2023-03-14T05:25:12.411Z,4.00
2023-03-14T05:28:45.208Z,8.00
2023-03-14T05:32:07.310Z,5.75
2023-03-14T05:35:29.071Z,4.50
2023-03-14T05:38:55.622Z,3.75
2023-03-14T05:42:19.350Z,4.00
2023-03-14T05:45:35.937Z,9.50
2023-03-14T05:48:58.590Z,3.25
2023-03-14T05:52:24.917Z,6.00
2023-03-14T05:55:59.353Z,2.50
2023-03-14T05:59:23.186Z,5.50
2023-03-14T06:02:45.342Z,7.00
2023-03-14T06:05:58.037Z,4.00
2023-03-14T06:09:01.814Z,7.25
2023-03-14T06:12:09.455Z,4.50
2023-03-14T06:15:18.397Z,1.00
2023-03-14T06:18:25.657Z,6.25
2023-03-14T06:21:30.338Z,8.00
2023-03-14T06:24:34.648Z,3.75
2023-03-14T06:27:39.781Z,6.00
2023-03-14T06:30:43.621Z,5.50
2023-03-14T06:33:49.403Z,7.00
2023-03-14T06:36:53.430Z,4.00
2023-03-14T06:39:57.277Z,6.00
2023-03-14T06:43:22.064Z,4.00
2023-03-14T06:46:25.739Z,7.50
2023-03-14T06:49:30.508Z,6.75
2023-03-14T06:52:36.336Z,6.50
2023-03-14T06:55:40.277Z,7.00
2023-03-14T06:58:49.630Z,7.00
2023-03-14T07:01:55.552Z,4.75
2023-03-14T07:04:59.156Z,10.50
2023-03-14T07:08:02.913Z,56.25
2023-03-14T07:11:06.955Z,22.50
2023-03-14T07:14:13.163Z,6.00
2023-03-14T07:17:16.739Z,68.50
2023-03-14T07:20:20.681Z,66.00
2023-03-14T07:23:24.653Z,12.75
2023-03-14T07:26:30.234Z,10.75
2023-03-14T07:29:35.214Z,13.00
2023-03-14T07:32:40.941Z,7.00
2023-03-14T07:35:44.781Z,9.75
2023-03-14T07:38:48.940Z,7.50
2023-03-14T07:42:09.315Z,10.00
2023-03-14T07:45:32.612Z,9.00
2023-03-14T07:48:36.191Z,12.75
2023-03-14T07:51:39.672Z,12.00
2023-03-14T07:54:43.202Z,9.75
2023-03-14T07:57:46.657Z,10.00
2023-03-14T08:00:51.976Z,6.00
2023-03-14T08:03:55.387Z,10.00
2023-03-14T08:06:58.879Z,8.50
2023-03-14T08:10:02.310Z,9.50
2023-03-14T08:13:06.061Z,6.00
2023-03-14T08:16:11.615Z,12.50
2023-03-14T08:19:15.034Z,8.00
2023-03-14T08:22:20.119Z,6.00
2023-03-14T08:25:24.005Z,9.00
2023-03-14T08:28:31.563Z,7.50
2023-03-14T08:31:36.780Z,12.25
2023-03-14T08:34:40.378Z,9.75
2023-03-14T08:37:44.238Z,11.50
2023-03-14T08:40:47.847Z,3.50
2023-03-14T08:43:51.246Z,3.00
2023-03-14T08:46:56.161Z,7.50
2023-03-14T08:49:59.715Z,9.00
2023-03-14T08:53:03.801Z,9.00
2023-03-14T08:56:08.270Z,9.50
2023-03-14T08:59:12.165Z,12.50
2023-03-14T09:02:16.983Z,5.50
2023-03-14T09:05:20.539Z,9.75
2023-03-14T09:08:23.991Z,9.25
2023-03-14T09:11:28.778Z,1.00
2023-03-14T09:14:33.080Z,9.00
2023-03-14T09:17:38.056Z,3.25
2023-03-14T09:20:43.037Z,6.25
2023-03-14T09:23:46.990Z,10.00
2023-03-14T09:26:50.462Z,9.00
2023-03-14T09:29:53.863Z,12.00
2023-03-14T09:33:00.172Z,12.75
2023-03-14T09:36:04.415Z,11.00
2023-03-14T09:39:08.444Z,9.50
2023-03-14T09:42:25.382Z,10.50
2023-03-14T09:45:31.437Z,12.00
2023-03-14T09:48:37.169Z,10.75
2023-03-14T09:51:43.455Z,12.75
2023-03-14T09:54:50.538Z,15.50
2023-03-14T09:57:59.997Z,13.75
2023-03-14T10:01:04.740Z,7.00
2023-03-14T10:04:17.232Z,10.00
2023-03-14T10:07:25.180Z,14.00
2023-03-14T10:10:29.124Z,6.00
2023-03-14T10:13:33.325Z,13.25
2023-03-14T10:16:39.581Z,16.00
2023-03-14T10:19:55.198Z,13.00
2023-03-14T10:22:58.666Z,16.00
2023-03-14T10:26:10.492Z,12.00
2023-03-14T10:29:14.951Z,13.00
2023-03-14T10:32:30.233Z,19.25
2023-03-14T10:35:37.330Z,15.75
2023-03-14T10:38:40.855Z,16.00
2023-03-14T10:41:50.380Z,13.00
2023-03-14T10:44:58.574Z,17.50
2023-03-14T10:48:17.573Z,17.75
2023-03-14T10:51:27.543Z,13.25
2023-03-14T10:54:32.767Z,15.00
2023-03-14T10:57:41.065Z,23.50
2023-03-14T11:00:45.265Z,14.75
2023-03-14T11:03:55.757Z,14.00
2023-03-14T11:07:05.806Z,19.00
2023-03-14T11:10:20.893Z,19.25
2023-03-14T11:13:29.135Z,16.00
2023-03-14T11:16:43.175Z,17.00
2023-03-14T11:19:59.990Z,18.00
2023-03-14T11:23:14.706Z,16.50
2023-03-14T11:26:30.450Z,17.75
2023-03-14T11:29:41.516Z,11.00
2023-03-14T11:32:48.576Z,13.25
2023-03-14T11:36:00.910Z,16.00
2023-03-14T11:39:15.801Z,13.00
2023-03-14T11:42:20.669Z,15.00
2023-03-14T11:45:31.683Z,14.00
2023-03-14T11:48:45.161Z,15.00
2023-03-14T11:51:50.886Z,14.00
2023-03-14T11:55:00.959Z,14.00
2023-03-14T11:58:16.979Z,13.00
2023-03-14T12:01:25.272Z,40.25
2023-03-14T12:04:49.198Z,21.00
2023-03-14T12:08:19.703Z,21.00
2023-03-14T12:11:36.045Z,17.00
2023-03-14T12:14:46.820Z,20.00
2023-03-14T12:17:56.553Z,18.00
2023-03-14T12:21:02.719Z,18.75
2023-03-14T12:24:06.830Z,22.00
2023-03-14T12:27:35.988Z,20.00
2023-03-14T12:30:41.546Z,24.75
2023-03-14T12:33:45.163Z,17.50
2023-03-14T12:37:02.647Z,20.00
2023-03-14T12:40:18.597Z,25.00
2023-03-14T12:43:30.316Z,15.00
2023-03-14T12:46:33.805Z,22.50
2023-03-14T12:49:39.079Z,19.75
2023-03-14T12:52:53.118Z,23.00
2023-03-14T12:56:03.442Z,20.75
2023-03-14T12:59:31.448Z,19.00
2023-03-14T13:02:42.119Z,15.25
2023-03-14T13:05:55.533Z,18.25
2023-03-14T13:08:59.112Z,20.00
2023-03-14T13:12:05.778Z,18.00
2023-03-14T13:15:25.757Z,20.00
2023-03-14T13:18:35.214Z,24.25
2023-03-14T13:21:40.210Z,18.25
2023-03-14T13:24:43.670Z,12.00
2023-03-14T13:27:47.281Z,18.00
2023-03-14T13:30:57.353Z,23.25
2023-03-14T13:34:02.492Z,16.50
2023-03-14T13:37:06.030Z,18.75
2023-03-14T13:40:22.438Z,22.50
2023-03-14T13:43:30.032Z,23.00
2023-03-14T13:46:38.020Z,11.50
2023-03-14T13:49:42.040Z,17.75
2023-03-14T13:52:47.337Z,24.25
2023-03-14T13:55:52.049Z,20.00
2023-03-14T13:58:55.941Z,23.25
2023-03-14T14:02:03.585Z,22.25
2023-03-14T14:05:08.163Z,20.75
2023-03-14T14:08:14.529Z,22.00
2023-03-14T14:11:30.220Z,14.25
2023-03-14T14:14:45.554Z,23.50
2023-03-14T14:17:55.029Z,19.50
2023-03-14T14:20:59.170Z,22.75
2023-03-14T14:24:03.324Z,34.25
2023-03-14T14:27:15.756Z,21.50
2023-03-14T14:30:32.099Z,17.50
2023-03-14T14:33:45.566Z,22.50
2023-03-14T14:36:51.012Z,24.25
2023-03-14T14:39:57.799Z,18.00
2023-03-14T14:43:07.102Z,24.50
2023-03-14T14:46:12.816Z,7.50
2023-03-14T14:49:22.063Z,24.00
2023-03-14T14:52:36.078Z,24.75
2023-03-14T14:55:43.345Z,9.25
2023-03-14T14:58:48.572Z,19.00
2023-03-14T15:01:52.911Z,31.25
2023-03-14T15:04:58.119Z,18.00
2023-03-14T15:08:01.757Z,23.50
2023-03-14T15:11:06.267Z,27.25
2023-03-14T15:14:10.546Z,18.00
2023-03-14T15:17:16.114Z,17.00
2023-03-14T15:20:24.636Z,17.00
2023-03-14T15:23:29.089Z,22.50
2023-03-14T15:26:32.891Z,22.00
2023-03-14T15:29:36.518Z,16.25
2023-03-14T15:32:40.259Z,26.50
2023-03-14T15:35:45.506Z,20.50
2023-03-14T15:38:49.207Z,16.25
2023-03-14T15:41:53.014Z,25.25
2023-03-14T15:44:56.556Z,27.25
2023-03-14T15:48:00.186Z,21.75
2023-03-14T15:51:06.004Z,18.50
2023-03-14T15:54:09.408Z,19.75
2023-03-14T15:57:13.568Z,22.50
2023-03-14T16:00:20.103Z,18.75
2023-03-14T16:03:30.340Z,24.00
2023-03-14T16:06:36.506Z,19.25
2023-03-14T16:09:43.862Z,18.00
2023-03-14T16:12:50.563Z,21.50
2023-03-14T16:15:58.821Z,20.50
2023-03-14T16:19:03.137Z,20.50
2023-03-14T16:22:09.561Z,20.50
2023-03-14T16:25:14.117Z,20.75
2023-03-14T16:28:17.659Z,25.00
2023-03-14T16:31:23.861Z,19.50
2023-03-14T16:34:27.400Z,19.00
2023-03-14T16:37:32.499Z,15.75
2023-03-14T16:40:36.029Z,21.00
2023-03-14T16:43:39.887Z,15.50
2023-03-14T16:46:43.724Z,18.75
2023-03-14T16:49:47.674Z,13.50
2023-03-14T16:52:52.594Z,15.00
2023-03-14T16:55:56.226Z,15.25
2023-03-14T16:59:02.216Z,13.75
2023-03-14T17:02:06.004Z,17.00
2023-03-14T17:05:09.843Z,15.25
2023-03-14T17:08:14.939Z,19.25
2023-03-14T17:11:18.526Z,20.25
2023-03-14T17:14:22.212Z,21.50
2023-03-14T17:17:25.765Z,18.50
2023-03-14T17:20:29.378Z,21.25
2023-03-14T17:23:35.537Z,12.75
2023-03-14T17:26:39.037Z,17.75
2023-03-14T17:29:42.603Z,20.00
2023-03-14T17:32:46.162Z,15.00
2023-03-14T17:35:49.713Z,23.00
2023-03-14T17:38:57.506Z,25.50
2023-03-14T17:42:01.452Z,27.25
2023-03-14T17:45:05.574Z,32.00
2023-03-14T17:48:10.184Z,48.50
2023-03-14T17:51:14.871Z,18.75
2023-03-14T17:54:19.789Z,18.50
2023-03-14T17:57:23.249Z,44.25
2023-03-14T18:00:26.943Z,28.50
2023-03-14T18:03:31.839Z,36.00
2023-03-14T18:06:35.511Z,33.50
2023-03-14T18:09:40.515Z,35.00
2023-03-14T18:12:44.073Z,45.75
2023-03-14T18:15:48.384Z,65.25
2023-03-14T18:18:52.176Z,27.00
2023-03-14T18:21:55.787Z,16.50
2023-03-14T18:25:01.152Z,14.50
2023-03-14T18:28:04.641Z,16.00
2023-03-14T18:31:10.075Z,20.00
2023-03-14T18:34:13.858Z,20.00
2023-03-14T18:37:17.647Z,23.75
2023-03-14T18:40:24.733Z,13.00
2023-03-14T18:43:33.873Z,16.50
2023-03-14T18:46:38.626Z,18.75
2023-03-14T18:49:42.357Z,18.25
2023-03-14T18:52:46.116Z,13.00
2023-03-14T18:55:52.626Z,15.00
2023-03-14T18:58:59.432Z,13.00
2023-03-14T19:02:03.193Z,12.50
2023-03-14T19:05:09.274Z,16.25
2023-03-14T19:08:15.381Z,13.00
2023-03-14T19:11:20.636Z,16.00
2023-03-14T19:14:24.678Z,16.25
2023-03-14T19:17:29.272Z,24.50
2023-03-14T19:20:32.866Z,15.50
2023-03-14T19:23:38.730Z,18.50
2023-03-14T19:26:43.709Z,16.50
2023-03-14T19:29:47.245Z,18.00
2023-03-14T19:32:51.963Z,16.00
2023-03-14T19:35:55.513Z,14.75
2023-03-14T19:39:02.021Z,15.50
2023-03-14T19:42:07.297Z,17.00
2023-03-14T19:45:11.961Z,17.50
2023-03-14T19:48:15.474Z,20.50
2023-03-14T19:51:19.125Z,13.25
2023-03-14T19:54:23.372Z,13.00
2023-03-14T19:57:28.152Z,18.25
2023-03-14T20:00:31.799Z,16.00
2023-03-14T20:03:36.512Z,10.75
2023-03-14T20:06:40.100Z,15.75
2023-03-14T20:09:43.800Z,15.00
2023-03-14T20:12:48.835Z,15.75
2023-03-14T20:15:53.271Z,13.00
2023-03-14T20:18:56.801Z,15.25
2023-03-14T20:22:02.762Z,15.75
2023-03-14T20:25:09.077Z,12.50
2023-03-14T20:28:14.016Z,15.00
2023-03-14T20:31:17.470Z,12.75
2023-03-14T20:34:21.177Z,21.00
2023-03-14T20:37:24.691Z,18.00
2023-03-14T20:40:29.901Z,13.50
2023-03-14T20:43:36.861Z,15.75
2023-03-14T20:46:41.509Z,17.00
2023-03-14T20:49:45.145Z,11.50
2023-03-14T20:52:48.545Z,6.00
2023-03-14T20:55:52.878Z,21.25
2023-03-14T20:58:57.987Z,15.25
2023-03-14T21:02:02.091Z,15.50
2023-03-14T21:05:07.243Z,19.00
2023-03-14T21:08:26.641Z,19.00
2023-03-14T21:11:32.575Z,16.00
2023-03-14T21:14:37.690Z,19.50
2023-03-14T21:17:41.480Z,15.25
2023-03-14T21:20:45.255Z,8.00
2023-03-14T21:23:48.743Z,0.00
2023-03-14T21:26:52.346Z,2.50
2023-03-14T21:29:59.010Z,0.00
2023-03-14T21:33:04.421Z,3.25
2023-03-14T21:36:11.838Z,1.00
2023-03-14T21:39:16.406Z,1.00
2023-03-14T21:42:19.991Z,6.00
2023-03-14T21:45:27.209Z,0.00
2023-03-14T21:48:30.937Z,1.25
2023-03-14T21:51:37.801Z,0.00
2023-03-14T21:54:42.972Z,2.50
2023-03-14T21:57:47.977Z,9.50
2023-03-14T22:00:53.115Z,1.00
2023-03-14T22:03:56.802Z,1.25
2023-03-14T22:07:00.441Z,0.75
2023-03-14T22:10:04.192Z,0.75
2023-03-14T22:13:07.757Z,2.00
2023-03-14T22:16:12.807Z,2.00
2023-03-14T22:19:17.440Z,0.50
2023-03-14T22:22:24.714Z,1.00
2023-03-14T22:25:28.202Z,0.00
2023-03-14T22:28:32.247Z,0.25
2023-03-14T22:31:37.898Z,0.00
2023-03-14T22:34:41.457Z,0.00
2023-03-14T22:37:45.092Z,0.00
2023-03-14T22:40:51.658Z,0.00
2023-03-14T22:43:56.921Z,0.00
2023-03-14T22:47:01.973Z,0.75
2023-03-14T22:50:06.629Z,0.00
2023-03-14T22:53:10.279Z,0.75
2023-03-14T22:56:14.196Z,0.00
2023-03-14T22:59:17.883Z,1.00
2023-03-14T23:02:23.101Z,0.00
2023-03-14T23:05:29.839Z,0.00
2023-03-14T23:08:33.702Z,0.00
2023-03-14T23:11:37.588Z,0.00
2023-03-14T23:14:41.013Z,0.00
2023-03-14T23:17:46.466Z,1.00
2023-03-14T23:20:50.032Z,0.25
2023-03-14T23:23:54.700Z,0.00
2023-03-14T23:26:58.244Z,0.00
2023-03-14T23:30:02.452Z,1.00
2023-03-14T23:33:07.385Z,0.50
2023-03-14T23:36:13.793Z,3.00
2023-03-14T23:39:17.306Z,0.00
2023-03-14T23:42:20.881Z,2.50
2023-03-14T23:45:24.584Z,1.00
2023-03-14T23:48:34.314Z,0.00
2023-03-14T23:51:37.895Z,0.25
2023-03-14T23:54:41.239Z,9.75
2023-03-14T23:57:44.745Z,13.00
